aviador You're here:

YPPD Decoded Metar

PORT HEDLAND in AUSTRALIA
Report Time2017-06-23 22:00:00
UTC Time2017-06-23 22:33:12
Flight Rules unknown UNKNOWN
Wind140° at 04 kt
W.Decomp.*RWY 14: 4.0 kt HW 0.1 kt LCW
RWY 18: 3.0 kt HW 2.6 kt LCW
W.Rank140° ranks 15
Current wind is below 140° avg. (8.8)
VisibilityN/A
Phenomena:N/A
Clouds:N/A
Expected CloudBase > 800 ft AGL from Temp-Dew spread
CeilingNone
Temp19°C (ISA +4)
Dew Point17°C (88% RH)
QNH1012 hPa
Density Alt784 ft
Elevation20 ft
Report Wrong Elevation
Raw Report
METAR YPPD 232200Z AUTO 14004KT //// // ////// 19/17 Q1012=

Extra information for YPPD:More info

Metar Taf Metar & Taf Last 4 Metars F.Rules Stats Wind Profile Meteogram Temp Stats Airport Information Weather charts Add Link Nearby VenuesMetar ALERT Operation Metar Decoded Social comments